sensor_id;sensor_type;location;lat;lon;timestamp;P1;durP1;ratioP1;P2;durP2;ratioP2
12120;SDS011;6124;59.460;17.908;2023-04-25T00:00:13;5.57;;;4.67;;
12120;SDS011;6124;59.460;17.908;2023-04-25T00:02:40;6.10;;;5.50;;
12120;SDS011;6124;59.460;17.908;2023-04-25T00:05:08;6.97;;;5.50;;
12120;SDS011;6124;59.460;17.908;2023-04-25T00:07:35;9.13;;;5.83;;
12120;SDS011;6124;59.460;17.908;2023-04-25T00:10:03;8.90;;;5.63;;
12120;SDS011;6124;59.460;17.908;2023-04-25T00:12:31;8.37;;;5.73;;
12120;SDS011;6124;59.460;17.908;2023-04-25T00:15:00;7.57;;;5.93;;
12120;SDS011;6124;59.460;17.908;2023-04-25T00:17:27;7.50;;;5.13;;
12120;SDS011;6124;59.460;17.908;2023-04-25T00:19:55;6.77;;;4.70;;
12120;SDS011;6124;59.460;17.908;2023-04-25T00:22:23;9.03;;;4.70;;
12120;SDS011;6124;59.460;17.908;2023-04-25T00:24:50;6.23;;;4.60;;
12120;SDS011;6124;59.460;17.908;2023-04-25T00:27:21;6.90;;;4.90;;
12120;SDS011;6124;59.460;17.908;2023-04-25T00:29:48;9.33;;;5.10;;
12120;SDS011;6124;59.460;17.908;2023-04-25T00:32:17;7.50;;;4.70;;
12120;SDS011;6124;59.460;17.908;2023-04-25T00:34:44;5.37;;;4.53;;
12120;SDS011;6124;59.460;17.908;2023-04-25T00:37:12;6.00;;;4.83;;
12120;SDS011;6124;59.460;17.908;2023-04-25T00:39:39;7.37;;;5.10;;
12120;SDS011;6124;59.460;17.908;2023-04-25T00:42:06;6.77;;;4.80;;
12120;SDS011;6124;59.460;17.908;2023-04-25T00:44:34;6.27;;;4.27;;
12120;SDS011;6124;59.460;17.908;2023-04-25T00:47:02;9.17;;;4.63;;
12120;SDS011;6124;59.460;17.908;2023-04-25T00:49:32;5.60;;;4.50;;
12120;SDS011;6124;59.460;17.908;2023-04-25T00:51:59;6.63;;;4.47;;
12120;SDS011;6124;59.460;17.908;2023-04-25T00:54:27;7.13;;;4.47;;
12120;SDS011;6124;59.460;17.908;2023-04-25T00:56:55;8.33;;;4.90;;
12120;SDS011;6124;59.460;17.908;2023-04-25T00:59:23;7.27;;;5.47;;
12120;SDS011;6124;59.460;17.908;2023-04-25T01:01:50;7.40;;;5.33;;
12120;SDS011;6124;59.460;17.908;2023-04-25T01:04:18;5.93;;;4.73;;
12120;SDS011;6124;59.460;17.908;2023-04-25T01:06:46;7.30;;;5.20;;
12120;SDS011;6124;59.460;17.908;2023-04-25T01:09:14;6.67;;;5.20;;
12120;SDS011;6124;59.460;17.908;2023-04-25T01:11:41;6.83;;;5.00;;
12120;SDS011;6124;59.460;17.908;2023-04-25T01:14:09;6.50;;;5.20;;
12120;SDS011;6124;59.460;17.908;2023-04-25T01:16:36;6.03;;;4.73;;
12120;SDS011;6124;59.460;17.908;2023-04-25T01:19:04;7.40;;;5.20;;
12120;SDS011;6124;59.460;17.908;2023-04-25T01:21:33;8.27;;;5.30;;
12120;SDS011;6124;59.460;17.908;2023-04-25T01:24:00;5.87;;;4.47;;
12120;SDS011;6124;59.460;17.908;2023-04-25T01:26:28;6.37;;;4.77;;
12120;SDS011;6124;59.460;17.908;2023-04-25T01:28:56;5.93;;;4.43;;
12120;SDS011;6124;59.460;17.908;2023-04-25T01:31:23;6.47;;;4.83;;
12120;SDS011;6124;59.460;17.908;2023-04-25T01:33:51;6.93;;;4.43;;
12120;SDS011;6124;59.460;17.908;2023-04-25T01:36:18;10.50;;;5.50;;
12120;SDS011;6124;59.460;17.908;2023-04-25T01:38:47;8.50;;;5.00;;
12120;SDS011;6124;59.460;17.908;2023-04-25T01:41:14;9.93;;;5.20;;
12120;SDS011;6124;59.460;17.908;2023-04-25T01:43:43;8.00;;;5.43;;
12120;SDS011;6124;59.460;17.908;2023-04-25T01:46:10;6.40;;;5.00;;
12120;SDS011;6124;59.460;17.908;2023-04-25T01:48:38;7.83;;;4.90;;
12120;SDS011;6124;59.460;17.908;2023-04-25T01:51:05;6.77;;;5.23;;
12120;SDS011;6124;59.460;17.908;2023-04-25T01:53:32;6.07;;;4.80;;
12120;SDS011;6124;59.460;17.908;2023-04-25T01:56:02;8.23;;;5.23;;
12120;SDS011;6124;59.460;17.908;2023-04-25T01:58:29;6.57;;;5.13;;
12120;SDS011;6124;59.460;17.908;2023-04-25T02:00:56;5.87;;;4.37;;
12120;SDS011;6124;59.460;17.908;2023-04-25T02:03:24;6.47;;;4.90;;
12120;SDS011;6124;59.460;17.908;2023-04-25T02:05:51;9.33;;;5.17;;
12120;SDS011;6124;59.460;17.908;2023-04-25T02:08:18;6.93;;;5.03;;
12120;SDS011;6124;59.460;17.908;2023-04-25T02:10:46;6.90;;;5.40;;
12120;SDS011;6124;59.460;17.908;2023-04-25T02:13:14;9.53;;;4.87;;
12120;SDS011;6124;59.460;17.908;2023-04-25T02:15:41;6.43;;;4.60;;
12120;SDS011;6124;59.460;17.908;2023-04-25T02:18:09;5.50;;;3.73;;
12120;SDS011;6124;59.460;17.908;2023-04-25T02:20:36;7.17;;;4.00;;
12120;SDS011;6124;59.460;17.908;2023-04-25T02:23:03;5.77;;;4.23;;
12120;SDS011;6124;59.460;17.908;2023-04-25T02:25:31;4.87;;;3.33;;
12120;SDS011;6124;59.460;17.908;2023-04-25T02:27:58;4.70;;;3.93;;
12120;SDS011;6124;59.460;17.908;2023-04-25T02:30:27;6.50;;;4.00;;
12120;SDS011;6124;59.460;17.908;2023-04-25T02:32:54;5.73;;;3.83;;
12120;SDS011;6124;59.460;17.908;2023-04-25T02:35:21;5.67;;;3.70;;
12120;SDS011;6124;59.460;17.908;2023-04-25T02:37:49;5.57;;;3.37;;
12120;SDS011;6124;59.460;17.908;2023-04-25T02:40:16;5.43;;;4.20;;
12120;SDS011;6124;59.460;17.908;2023-04-25T02:42:43;5.30;;;3.57;;
12120;SDS011;6124;59.460;17.908;2023-04-25T02:45:11;5.47;;;3.73;;
12120;SDS011;6124;59.460;17.908;2023-04-25T02:47:39;6.43;;;3.73;;
12120;SDS011;6124;59.460;17.908;2023-04-25T02:50:07;4.80;;;3.30;;
12120;SDS011;6124;59.460;17.908;2023-04-25T02:52:34;5.10;;;3.53;;
12120;SDS011;6124;59.460;17.908;2023-04-25T02:55:02;5.73;;;3.67;;
12120;SDS011;6124;59.460;17.908;2023-04-25T02:57:29;5.13;;;3.30;;
12120;SDS011;6124;59.460;17.908;2023-04-25T02:59:56;6.47;;;3.33;;
12120;SDS011;6124;59.460;17.908;2023-04-25T03:02:23;3.57;;;2.97;;
12120;SDS011;6124;59.460;17.908;2023-04-25T03:04:52;5.63;;;2.67;;
12120;SDS011;6124;59.460;17.908;2023-04-25T03:07:20;4.83;;;3.07;;
12120;SDS011;6124;59.460;17.908;2023-04-25T03:09:47;5.53;;;3.50;;
12120;SDS011;6124;59.460;17.908;2023-04-25T03:12:15;4.47;;;2.93;;
12120;SDS011;6124;59.460;17.908;2023-04-25T03:14:42;2.90;;;2.53;;
12120;SDS011;6124;59.460;17.908;2023-04-25T03:17:09;5.13;;;2.43;;
12120;SDS011;6124;59.460;17.908;2023-04-25T03:19:37;6.10;;;2.43;;
12120;SDS011;6124;59.460;17.908;2023-04-25T03:22:05;5.20;;;2.60;;
12120;SDS011;6124;59.460;17.908;2023-04-25T03:24:33;3.13;;;2.23;;
12120;SDS011;6124;59.460;17.908;2023-04-25T03:27:01;4.60;;;2.40;;
12120;SDS011;6124;59.460;17.908;2023-04-25T03:29:29;6.97;;;2.73;;
12120;SDS011;6124;59.460;17.908;2023-04-25T03:31:56;4.23;;;2.00;;
12120;SDS011;6124;59.460;17.908;2023-04-25T03:34:23;4.37;;;2.03;;
12120;SDS011;6124;59.460;17.908;2023-04-25T03:36:51;4.90;;;2.20;;
12120;SDS011;6124;59.460;17.908;2023-04-25T03:39:19;5.47;;;1.77;;
12120;SDS011;6124;59.460;17.908;2023-04-25T03:41:47;3.87;;;2.10;;
12120;SDS011;6124;59.460;17.908;2023-04-25T03:44:14;5.27;;;2.17;;
12120;SDS011;6124;59.460;17.908;2023-04-25T03:46:41;2.60;;;1.90;;
12120;SDS011;6124;59.460;17.908;2023-04-25T03:49:08;3.77;;;1.93;;
12120;SDS011;6124;59.460;17.908;2023-04-25T03:51:36;3.27;;;1.50;;
12120;SDS011;6124;59.460;17.908;2023-04-25T03:54:03;6.10;;;1.90;;
12120;SDS011;6124;59.460;17.908;2023-04-25T03:56:32;4.67;;;1.70;;
12120;SDS011;6124;59.460;17.908;2023-04-25T03:58:59;4.93;;;1.70;;
12120;SDS011;6124;59.460;17.908;2023-04-25T04:01:27;3.23;;;1.80;;
12120;SDS011;6124;59.460;17.908;2023-04-25T04:03:54;3.23;;;1.70;;
12120;SDS011;6124;59.460;17.908;2023-04-25T04:06:21;4.50;;;2.00;;
12120;SDS011;6124;59.460;17.908;2023-04-25T04:08:49;1.90;;;1.60;;
12120;SDS011;6124;59.460;17.908;2023-04-25T04:11:16;4.60;;;1.70;;
12120;SDS011;6124;59.460;17.908;2023-04-25T04:13:45;4.53;;;1.67;;
12120;SDS011;6124;59.460;17.908;2023-04-25T04:16:12;5.23;;;1.63;;
12120;SDS011;6124;59.460;17.908;2023-04-25T04:18:40;3.10;;;1.50;;
12120;SDS011;6124;59.460;17.908;2023-04-25T04:21:07;6.33;;;1.70;;
12120;SDS011;6124;59.460;17.908;2023-04-25T04:23:34;3.17;;;1.60;;
12120;SDS011;6124;59.460;17.908;2023-04-25T04:26:02;1.87;;;1.67;;
12120;SDS011;6124;59.460;17.908;2023-04-25T04:28:30;7.27;;;1.87;;
12120;SDS011;6124;59.460;17.908;2023-04-25T04:30:58;6.70;;;2.17;;
12120;SDS011;6124;59.460;17.908;2023-04-25T04:33:26;4.27;;;1.50;;
12120;SDS011;6124;59.460;17.908;2023-04-25T04:35:54;5.43;;;1.83;;
12120;SDS011;6124;59.460;17.908;2023-04-25T04:38:21;2.70;;;1.63;;
12120;SDS011;6124;59.460;17.908;2023-04-25T04:40:49;4.63;;;2.00;;
12120;SDS011;6124;59.460;17.908;2023-04-25T04:43:17;3.20;;;1.90;;
12120;SDS011;6124;59.460;17.908;2023-04-25T04:45:44;2.53;;;1.60;;
12120;SDS011;6124;59.460;17.908;2023-04-25T04:48:14;7.40;;;2.00;;
12120;SDS011;6124;59.460;17.908;2023-04-25T04:50:42;5.40;;;2.40;;
12120;SDS011;6124;59.460;17.908;2023-04-25T04:53:10;3.57;;;1.80;;
12120;SDS011;6124;59.460;17.908;2023-04-25T04:55:38;3.77;;;1.70;;
12120;SDS011;6124;59.460;17.908;2023-04-25T04:58:06;4.20;;;2.10;;
12120;SDS011;6124;59.460;17.908;2023-04-25T05:00:33;3.23;;;1.77;;
12120;SDS011;6124;59.460;17.908;2023-04-25T05:03:00;2.37;;;1.90;;
12120;SDS011;6124;59.460;17.908;2023-04-25T05:05:29;4.53;;;2.30;;
12120;SDS011;6124;59.460;17.908;2023-04-25T05:07:56;4.03;;;1.90;;
12120;SDS011;6124;59.460;17.908;2023-04-25T05:10:24;2.37;;;1.70;;
12120;SDS011;6124;59.460;17.908;2023-04-25T05:12:51;4.40;;;1.90;;
12120;SDS011;6124;59.460;17.908;2023-04-25T05:15:18;3.90;;;1.83;;
12120;SDS011;6124;59.460;17.908;2023-04-25T05:17:46;3.37;;;2.27;;
12120;SDS011;6124;59.460;17.908;2023-04-25T05:20:13;3.03;;;2.27;;
12120;SDS011;6124;59.460;17.908;2023-04-25T05:22:41;3.60;;;2.10;;
12120;SDS011;6124;59.460;17.908;2023-04-25T05:25:09;2.70;;;2.30;;
12120;SDS011;6124;59.460;17.908;2023-04-25T05:27:36;3.30;;;2.03;;
12120;SDS011;6124;59.460;17.908;2023-04-25T05:30:04;4.17;;;2.17;;
12120;SDS011;6124;59.460;17.908;2023-04-25T05:32:32;2.30;;;2.00;;
12120;SDS011;6124;59.460;17.908;2023-04-25T05:34:59;2.60;;;1.87;;
12120;SDS011;6124;59.460;17.908;2023-04-25T05:37:27;3.27;;;2.10;;
12120;SDS011;6124;59.460;17.908;2023-04-25T05:39:57;2.80;;;2.20;;
12120;SDS011;6124;59.460;17.908;2023-04-25T05:42:25;2.90;;;2.20;;
12120;SDS011;6124;59.460;17.908;2023-04-25T05:44:52;4.47;;;2.20;;
12120;SDS011;6124;59.460;17.908;2023-04-25T05:47:19;6.60;;;2.50;;
12120;SDS011;6124;59.460;17.908;2023-04-25T05:49:46;3.43;;;2.20;;
12120;SDS011;6124;59.460;17.908;2023-04-25T05:52:14;3.00;;;1.87;;
12120;SDS011;6124;59.460;17.908;2023-04-25T05:54:41;2.60;;;2.20;;
12120;SDS011;6124;59.460;17.908;2023-04-25T05:57:14;4.83;;;2.67;;
12120;SDS011;6124;59.460;17.908;2023-04-25T05:59:44;3.93;;;2.40;;
12120;SDS011;6124;59.460;17.908;2023-04-25T06:02:12;5.50;;;2.73;;
12120;SDS011;6124;59.460;17.908;2023-04-25T06:04:39;4.77;;;3.20;;
12120;SDS011;6124;59.460;17.908;2023-04-25T06:07:06;4.43;;;2.60;;
12120;SDS011;6124;59.460;17.908;2023-04-25T06:09:34;5.17;;;2.90;;
12120;SDS011;6124;59.460;17.908;2023-04-25T06:12:01;4.67;;;2.90;;
12120;SDS011;6124;59.460;17.908;2023-04-25T06:14:30;5.03;;;2.73;;
12120;SDS011;6124;59.460;17.908;2023-04-25T06:16:57;3.57;;;2.60;;
12120;SDS011;6124;59.460;17.908;2023-04-25T06:19:25;5.80;;;3.20;;
12120;SDS011;6124;59.460;17.908;2023-04-25T06:21:52;6.23;;;2.63;;
12120;SDS011;6124;59.460;17.908;2023-04-25T06:24:19;5.03;;;2.93;;
12120;SDS011;6124;59.460;17.908;2023-04-25T06:26:46;4.70;;;3.10;;
12120;SDS011;6124;59.460;17.908;2023-04-25T06:29:14;6.23;;;2.90;;
12120;SDS011;6124;59.460;17.908;2023-04-25T06:31:42;6.00;;;3.30;;
12120;SDS011;6124;59.460;17.908;2023-04-25T06:34:10;5.60;;;2.93;;
12120;SDS011;6124;59.460;17.908;2023-04-25T06:36:37;6.17;;;2.87;;
12120;SDS011;6124;59.460;17.908;2023-04-25T06:39:06;5.33;;;2.90;;
12120;SDS011;6124;59.460;17.908;2023-04-25T06:41:34;5.47;;;3.10;;
12120;SDS011;6124;59.460;17.908;2023-04-25T06:44:01;5.43;;;2.70;;
12120;SDS011;6124;59.460;17.908;2023-04-25T06:46:28;3.60;;;2.60;;
12120;SDS011;6124;59.460;17.908;2023-04-25T06:48:57;7.60;;;3.27;;
12120;SDS011;6124;59.460;17.908;2023-04-25T06:51:24;5.67;;;2.97;;
12120;SDS011;6124;59.460;17.908;2023-04-25T06:53:54;4.77;;;2.50;;
12120;SDS011;6124;59.460;17.908;2023-04-25T06:56:21;5.80;;;2.33;;
12120;SDS011;6124;59.460;17.908;2023-04-25T06:58:48;3.63;;;2.37;;
12120;SDS011;6124;59.460;17.908;2023-04-25T07:01:16;4.87;;;2.50;;
12120;SDS011;6124;59.460;17.908;2023-04-25T07:03:43;3.20;;;2.23;;
12120;SDS011;6124;59.460;17.908;2023-04-25T07:06:12;4.93;;;2.90;;
12120;SDS011;6124;59.460;17.908;2023-04-25T07:08:39;4.97;;;2.60;;
12120;SDS011;6124;59.460;17.908;2023-04-25T07:11:07;6.87;;;2.37;;
12120;SDS011;6124;59.460;17.908;2023-04-25T07:13:34;5.37;;;2.87;;
12120;SDS011;6124;59.460;17.908;2023-04-25T07:16:01;5.30;;;2.33;;
12120;SDS011;6124;59.460;17.908;2023-04-25T07:18:29;3.30;;;2.23;;
12120;SDS011;6124;59.460;17.908;2023-04-25T07:20:56;4.80;;;2.03;;
12120;SDS011;6124;59.460;17.908;2023-04-25T07:23:25;4.10;;;2.50;;
12120;SDS011;6124;59.460;17.908;2023-04-25T07:25:52;7.13;;;2.40;;
12120;SDS011;6124;59.460;17.908;2023-04-25T07:28:19;6.13;;;2.70;;
12120;SDS011;6124;59.460;17.908;2023-04-25T07:30:47;6.30;;;2.40;;
12120;SDS011;6124;59.460;17.908;2023-04-25T07:33:14;4.77;;;2.50;;
12120;SDS011;6124;59.460;17.908;2023-04-25T07:35:41;3.17;;;2.17;;
12120;SDS011;6124;59.460;17.908;2023-04-25T07:38:09;3.80;;;2.53;;
12120;SDS011;6124;59.460;17.908;2023-04-25T07:40:37;3.03;;;2.20;;
12120;SDS011;6124;59.460;17.908;2023-04-25T07:43:05;4.00;;;2.27;;
12120;SDS011;6124;59.460;17.908;2023-04-25T07:45:32;5.43;;;3.00;;
12120;SDS011;6124;59.460;17.908;2023-04-25T07:47:59;5.37;;;2.50;;
12120;SDS011;6124;59.460;17.908;2023-04-25T07:50:28;2.87;;;2.30;;
12120;SDS011;6124;59.460;17.908;2023-04-25T07:52:55;3.23;;;2.40;;
12120;SDS011;6124;59.460;17.908;2023-04-25T07:55:22;3.60;;;2.33;;
12120;SDS011;6124;59.460;17.908;2023-04-25T07:57:51;3.83;;;2.43;;
12120;SDS011;6124;59.460;17.908;2023-04-25T08:00:19;3.73;;;2.67;;
12120;SDS011;6124;59.460;17.908;2023-04-25T08:02:46;4.37;;;2.80;;
12120;SDS011;6124;59.460;17.908;2023-04-25T08:05:15;6.67;;;2.60;;
12120;SDS011;6124;59.460;17.908;2023-04-25T08:07:43;3.57;;;2.70;;
12120;SDS011;6124;59.460;17.908;2023-04-25T08:10:10;3.87;;;2.23;;
12120;SDS011;6124;59.460;17.908;2023-04-25T08:12:37;4.63;;;2.30;;
12120;SDS011;6124;59.460;17.908;2023-04-25T08:15:07;4.17;;;2.60;;
12120;SDS011;6124;59.460;17.908;2023-04-25T08:17:34;3.37;;;2.30;;
12120;SDS011;6124;59.460;17.908;2023-04-25T08:20:02;4.13;;;2.47;;
12120;SDS011;6124;59.460;17.908;2023-04-25T08:22:30;2.70;;;2.23;;
12120;SDS011;6124;59.460;17.908;2023-04-25T08:24:59;4.63;;;2.60;;
12120;SDS011;6124;59.460;17.908;2023-04-25T08:27:26;3.60;;;2.60;;
12120;SDS011;6124;59.460;17.908;2023-04-25T08:29:53;3.73;;;2.50;;
12120;SDS011;6124;59.460;17.908;2023-04-25T08:32:22;3.97;;;2.67;;
12120;SDS011;6124;59.460;17.908;2023-04-25T08:34:49;3.50;;;2.50;;
12120;SDS011;6124;59.460;17.908;2023-04-25T08:37:19;3.37;;;2.50;;
12120;SDS011;6124;59.460;17.908;2023-04-25T08:39:46;4.50;;;2.87;;
12120;SDS011;6124;59.460;17.908;2023-04-25T08:42:15;3.33;;;2.70;;
12120;SDS011;6124;59.460;17.908;2023-04-25T08:44:43;4.60;;;3.00;;
12120;SDS011;6124;59.460;17.908;2023-04-25T08:47:11;5.73;;;3.07;;
12120;SDS011;6124;59.460;17.908;2023-04-25T08:49:40;5.70;;;2.60;;
12120;SDS011;6124;59.460;17.908;2023-04-25T08:52:12;4.60;;;2.87;;
12120;SDS011;6124;59.460;17.908;2023-04-25T08:54:41;4.83;;;2.90;;
12120;SDS011;6124;59.460;17.908;2023-04-25T08:57:09;4.83;;;2.97;;
12120;SDS011;6124;59.460;17.908;2023-04-25T08:59:37;4.87;;;3.23;;
12120;SDS011;6124;59.460;17.908;2023-04-25T09:02:04;4.83;;;2.87;;
12120;SDS011;6124;59.460;17.908;2023-04-25T09:04:33;4.33;;;3.17;;
12120;SDS011;6124;59.460;17.908;2023-04-25T09:07:02;4.67;;;3.10;;
12120;SDS011;6124;59.460;17.908;2023-04-25T09:09:30;3.87;;;2.77;;
12120;SDS011;6124;59.460;17.908;2023-04-25T09:11:57;4.90;;;2.97;;
12120;SDS011;6124;59.460;17.908;2023-04-25T09:14:26;4.63;;;3.13;;
12120;SDS011;6124;59.460;17.908;2023-04-25T09:16:57;5.50;;;3.40;;
12120;SDS011;6124;59.460;17.908;2023-04-25T09:19:26;4.60;;;3.40;;
12120;SDS011;6124;59.460;17.908;2023-04-25T09:21:53;6.10;;;3.57;;
12120;SDS011;6124;59.460;17.908;2023-04-25T09:24:30;5.40;;;3.80;;
12120;SDS011;6124;59.460;17.908;2023-04-25T09:26:58;5.37;;;3.60;;
12120;SDS011;6124;59.460;17.908;2023-04-25T09:29:29;6.87;;;4.10;;
12120;SDS011;6124;59.460;17.908;2023-04-25T09:32:13;4.63;;;3.23;;
12120;SDS011;6124;59.460;17.908;2023-04-25T09:34:41;6.13;;;3.77;;
12120;SDS011;6124;59.460;17.908;2023-04-25T09:37:09;5.93;;;4.17;;
12120;SDS011;6124;59.460;17.908;2023-04-25T09:39:38;6.13;;;3.97;;
12120;SDS011;6124;59.460;17.908;2023-04-25T09:42:05;7.60;;;4.33;;
12120;SDS011;6124;59.460;17.908;2023-04-25T09:44:33;5.83;;;4.23;;
12120;SDS011;6124;59.460;17.908;2023-04-25T09:47:00;6.13;;;4.13;;
12120;SDS011;6124;59.460;17.908;2023-04-25T09:49:28;6.90;;;4.70;;
12120;SDS011;6124;59.460;17.908;2023-04-25T09:51:55;6.47;;;4.27;;
12120;SDS011;6124;59.460;17.908;2023-04-25T09:54:23;5.50;;;4.07;;
12120;SDS011;6124;59.460;17.908;2023-04-25T09:56:52;8.67;;;4.30;;
12120;SDS011;6124;59.460;17.908;2023-04-25T09:59:20;7.70;;;4.30;;
12120;SDS011;6124;59.460;17.908;2023-04-25T10:01:49;7.10;;;4.93;;
12120;SDS011;6124;59.460;17.908;2023-04-25T10:04:18;7.37;;;4.90;;
12120;SDS011;6124;59.460;17.908;2023-04-25T10:06:48;5.57;;;4.23;;
12120;SDS011;6124;59.460;17.908;2023-04-25T10:09:17;7.97;;;5.10;;
12120;SDS011;6124;59.460;17.908;2023-04-25T10:11:46;7.37;;;5.10;;
12120;SDS011;6124;59.460;17.908;2023-04-25T10:14:15;6.23;;;4.70;;
12120;SDS011;6124;59.460;17.908;2023-04-25T10:16:43;6.53;;;4.90;;
12120;SDS011;6124;59.460;17.908;2023-04-25T10:19:10;7.00;;;4.80;;
12120;SDS011;6124;59.460;17.908;2023-04-25T10:21:40;7.27;;;4.90;;
12120;SDS011;6124;59.460;17.908;2023-04-25T10:24:11;5.93;;;4.77;;
12120;SDS011;6124;59.460;17.908;2023-04-25T10:26:39;7.23;;;5.10;;
12120;SDS011;6124;59.460;17.908;2023-04-25T10:29:07;7.23;;;4.90;;
12120;SDS011;6124;59.460;17.908;2023-04-25T10:31:44;6.30;;;4.90;;
12120;SDS011;6124;59.460;17.908;2023-04-25T10:34:11;7.27;;;5.20;;
12120;SDS011;6124;59.460;17.908;2023-04-25T10:36:39;7.20;;;5.10;;
12120;SDS011;6124;59.460;17.908;2023-04-25T10:39:06;5.63;;;4.60;;
12120;SDS011;6124;59.460;17.908;2023-04-25T10:41:45;5.67;;;4.77;;
12120;SDS011;6124;59.460;17.908;2023-04-25T10:44:13;5.43;;;4.67;;
12120;SDS011;6124;59.460;17.908;2023-04-25T10:46:42;6.53;;;4.70;;
12120;SDS011;6124;59.460;17.908;2023-04-25T10:49:11;7.20;;;4.67;;
12120;SDS011;6124;59.460;17.908;2023-04-25T10:54:39;5.53;;;4.23;;
12120;SDS011;6124;59.460;17.908;2023-04-25T10:57:07;5.27;;;4.57;;
12120;SDS011;6124;59.460;17.908;2023-04-25T10:59:34;6.93;;;4.90;;
12120;SDS011;6124;59.460;17.908;2023-04-25T11:02:09;5.67;;;4.37;;
12120;SDS011;6124;59.460;17.908;2023-04-25T11:04:39;6.80;;;4.63;;
12120;SDS011;6124;59.460;17.908;2023-04-25T11:07:09;5.50;;;4.57;;
12120;SDS011;6124;59.460;17.908;2023-04-25T11:09:38;6.53;;;4.90;;
12120;SDS011;6124;59.460;17.908;2023-04-25T11:12:07;6.00;;;4.60;;
12120;SDS011;6124;59.460;17.908;2023-04-25T11:14:35;6.00;;;4.17;;
12120;SDS011;6124;59.460;17.908;2023-04-25T11:17:03;5.53;;;4.50;;
12120;SDS011;6124;59.460;17.908;2023-04-25T11:19:31;5.43;;;4.00;;
12120;SDS011;6124;59.460;17.908;2023-04-25T11:22:00;5.20;;;4.40;;
12120;SDS011;6124;59.460;17.908;2023-04-25T11:24:27;5.07;;;4.13;;
12120;SDS011;6124;59.460;17.908;2023-04-25T11:26:56;5.30;;;4.00;;
12120;SDS011;6124;59.460;17.908;2023-04-25T11:29:23;4.10;;;3.70;;
12120;SDS011;6124;59.460;17.908;2023-04-25T11:31:50;4.83;;;4.30;;
12120;SDS011;6124;59.460;17.908;2023-04-25T11:34:19;4.40;;;3.87;;
12120;SDS011;6124;59.460;17.908;2023-04-25T11:36:47;5.67;;;4.47;;
12120;SDS011;6124;59.460;17.908;2023-04-25T11:39:14;5.57;;;3.90;;
12120;SDS011;6124;59.460;17.908;2023-04-25T11:41:41;4.73;;;4.20;;
12120;SDS011;6124;59.460;17.908;2023-04-25T11:44:09;6.03;;;4.93;;
12120;SDS011;6124;59.460;17.908;2023-04-25T11:46:36;5.60;;;4.60;;
12120;SDS011;6124;59.460;17.908;2023-04-25T11:49:03;6.73;;;5.53;;
12120;SDS011;6124;59.460;17.908;2023-04-25T11:51:38;8.17;;;5.97;;
12120;SDS011;6124;59.460;17.908;2023-04-25T11:54:06;7.43;;;5.70;;
12120;SDS011;6124;59.460;17.908;2023-04-25T11:56:34;8.50;;;5.90;;
12120;SDS011;6124;59.460;17.908;2023-04-25T11:59:02;7.87;;;5.97;;
12120;SDS011;6124;59.460;17.908;2023-04-25T12:01:30;7.37;;;5.73;;
12120;SDS011;6124;59.460;17.908;2023-04-25T12:03:57;7.33;;;5.20;;
12120;SDS011;6124;59.460;17.908;2023-04-25T12:06:28;9.07;;;5.93;;
12120;SDS011;6124;59.460;17.908;2023-04-25T12:09:00;7.63;;;5.20;;
12120;SDS011;6124;59.460;17.908;2023-04-25T12:11:29;5.70;;;4.97;;
12120;SDS011;6124;59.460;17.908;2023-04-25T12:14:01;8.83;;;5.77;;
12120;SDS011;6124;59.460;17.908;2023-04-25T12:16:29;6.33;;;5.67;;
12120;SDS011;6124;59.460;17.908;2023-04-25T12:18:57;7.70;;;5.50;;
12120;SDS011;6124;59.460;17.908;2023-04-25T12:21:27;6.93;;;5.23;;
12120;SDS011;6124;59.460;17.908;2023-04-25T12:23:55;6.57;;;5.23;;
12120;SDS011;6124;59.460;17.908;2023-04-25T12:26:24;5.60;;;5.00;;
12120;SDS011;6124;59.460;17.908;2023-04-25T12:28:52;7.03;;;5.17;;
12120;SDS011;6124;59.460;17.908;2023-04-25T12:31:20;6.07;;;5.37;;
12120;SDS011;6124;59.460;17.908;2023-04-25T12:33:47;8.13;;;5.83;;
12120;SDS011;6124;59.460;17.908;2023-04-25T12:36:15;6.37;;;5.07;;
12120;SDS011;6124;59.460;17.908;2023-04-25T12:38:42;6.07;;;4.67;;
12120;SDS011;6124;59.460;17.908;2023-04-25T12:41:09;7.07;;;5.40;;
12120;SDS011;6124;59.460;17.908;2023-04-25T12:43:38;7.80;;;5.57;;
12120;SDS011;6124;59.460;17.908;2023-04-25T12:46:05;5.00;;;4.47;;
12120;SDS011;6124;59.460;17.908;2023-04-25T12:48:33;7.23;;;5.07;;
12120;SDS011;6124;59.460;17.908;2023-04-25T12:51:00;6.83;;;5.47;;
12120;SDS011;6124;59.460;17.908;2023-04-25T12:53:28;7.33;;;5.10;;
12120;SDS011;6124;59.460;17.908;2023-04-25T12:55:55;7.03;;;5.83;;
12120;SDS011;6124;59.460;17.908;2023-04-25T12:58:23;8.27;;;5.77;;
12120;SDS011;6124;59.460;17.908;2023-04-25T13:00:52;6.20;;;5.60;;
12120;SDS011;6124;59.460;17.908;2023-04-25T13:03:19;5.53;;;4.80;;
12120;SDS011;6124;59.460;17.908;2023-04-25T13:05:47;6.07;;;5.23;;
12120;SDS011;6124;59.460;17.908;2023-04-25T13:08:15;7.60;;;5.87;;
12120;SDS011;6124;59.460;17.908;2023-04-25T13:10:42;6.40;;;5.20;;
12120;SDS011;6124;59.460;17.908;2023-04-25T13:13:10;6.67;;;5.23;;
12120;SDS011;6124;59.460;17.908;2023-04-25T13:15:37;6.10;;;5.20;;
12120;SDS011;6124;59.460;17.908;2023-04-25T13:18:06;8.67;;;6.67;;
12120;SDS011;6124;59.460;17.908;2023-04-25T13:20:33;10.87;;;6.93;;
12120;SDS011;6124;59.460;17.908;2023-04-25T13:23:00;10.67;;;7.50;;
12120;SDS011;6124;59.460;17.908;2023-04-25T13:25:28;8.37;;;7.33;;
12120;SDS011;6124;59.460;17.908;2023-04-25T13:27:55;10.97;;;7.80;;
12120;SDS011;6124;59.460;17.908;2023-04-25T13:30:22;10.83;;;7.90;;
12120;SDS011;6124;59.460;17.908;2023-04-25T13:32:49;8.57;;;7.20;;
12120;SDS011;6124;59.460;17.908;2023-04-25T13:35:19;8.63;;;6.53;;
12120;SDS011;6124;59.460;17.908;2023-04-25T13:37:46;10.53;;;6.67;;
12120;SDS011;6124;59.460;17.908;2023-04-25T13:40:13;9.03;;;6.43;;
12120;SDS011;6124;59.460;17.908;2023-04-25T13:42:41;8.43;;;5.97;;
12120;SDS011;6124;59.460;17.908;2023-04-25T13:45:09;8.53;;;6.50;;
12120;SDS011;6124;59.460;17.908;2023-04-25T13:47:36;10.67;;;6.43;;
12120;SDS011;6124;59.460;17.908;2023-04-25T13:50:04;8.67;;;6.43;;
12120;SDS011;6124;59.460;17.908;2023-04-25T13:52:33;8.43;;;6.00;;
12120;SDS011;6124;59.460;17.908;2023-04-25T13:55:01;7.93;;;6.20;;
12120;SDS011;6124;59.460;17.908;2023-04-25T13:57:31;8.47;;;6.27;;
12120;SDS011;6124;59.460;17.908;2023-04-25T13:59:59;7.77;;;6.03;;
12120;SDS011;6124;59.460;17.908;2023-04-25T14:02:31;9.47;;;6.47;;
12120;SDS011;6124;59.460;17.908;2023-04-25T14:04:58;11.63;;;7.03;;
12120;SDS011;6124;59.460;17.908;2023-04-25T14:07:25;9.47;;;7.20;;
12120;SDS011;6124;59.460;17.908;2023-04-25T14:09:54;12.07;;;7.77;;
12120;SDS011;6124;59.460;17.908;2023-04-25T14:12:22;11.90;;;7.30;;
12120;SDS011;6124;59.460;17.908;2023-04-25T14:14:49;13.80;;;10.40;;
12120;SDS011;6124;59.460;17.908;2023-04-25T14:17:17;13.40;;;8.10;;
12120;SDS011;6124;59.460;17.908;2023-04-25T14:19:45;7.77;;;6.00;;
12120;SDS011;6124;59.460;17.908;2023-04-25T14:22:13;8.43;;;5.77;;
12120;SDS011;6124;59.460;17.908;2023-04-25T14:24:40;7.80;;;6.17;;
12120;SDS011;6124;59.460;17.908;2023-04-25T14:27:09;13.80;;;7.03;;
12120;SDS011;6124;59.460;17.908;2023-04-25T14:29:36;9.50;;;6.37;;
12120;SDS011;6124;59.460;17.908;2023-04-25T14:32:04;9.67;;;6.00;;
12120;SDS011;6124;59.460;17.908;2023-04-25T14:34:31;9.67;;;6.07;;
12120;SDS011;6124;59.460;17.908;2023-04-25T14:36:58;8.93;;;6.13;;
12120;SDS011;6124;59.460;17.908;2023-04-25T14:39:26;9.40;;;5.87;;
12120;SDS011;6124;59.460;17.908;2023-04-25T14:41:53;8.87;;;6.30;;
12120;SDS011;6124;59.460;17.908;2023-04-25T14:44:22;8.87;;;6.63;;
12120;SDS011;6124;59.460;17.908;2023-04-25T14:46:49;9.67;;;6.60;;
12120;SDS011;6124;59.460;17.908;2023-04-25T14:49:17;9.23;;;6.83;;
12120;SDS011;6124;59.460;17.908;2023-04-25T14:51:45;9.93;;;6.50;;
12120;SDS011;6124;59.460;17.908;2023-04-25T14:54:12;10.00;;;6.30;;